sensor_id;sensor_type;location;lat;lon;timestamp;temperature;humidity
13591;DHT22;6866;50.778;7.206;2022-08-21T00:01:05;17.20;64.10
13591;DHT22;6866;50.778;7.206;2022-08-21T00:03:31;17.10;63.90
13591;DHT22;6866;50.778;7.206;2022-08-21T00:05:57;17.20;63.80
13591;DHT22;6866;50.778;7.206;2022-08-21T00:08:23;17.10;64.30
13591;DHT22;6866;50.778;7.206;2022-08-21T00:10:49;16.90;65.00
13591;DHT22;6866;50.778;7.206;2022-08-21T00:13:16;16.90;65.10
13591;DHT22;6866;50.778;7.206;2022-08-21T00:15:43;16.90;65.40
13591;DHT22;6866;50.778;7.206;2022-08-21T00:18:09;16.80;65.80
13591;DHT22;6866;50.778;7.206;2022-08-21T00:20:37;16.70;66.10
13591;DHT22;6866;50.778;7.206;2022-08-21T00:23:03;16.70;66.40
13591;DHT22;6866;50.778;7.206;2022-08-21T00:25:30;16.60;66.60
13591;DHT22;6866;50.778;7.206;2022-08-21T00:27:56;16.70;66.60
13591;DHT22;6866;50.778;7.206;2022-08-21T00:30:25;16.60;66.90
13591;DHT22;6866;50.778;7.206;2022-08-21T00:32:52;16.20;68.80
13591;DHT22;6866;50.778;7.206;2022-08-21T00:35:21;16.20;68.60
13591;DHT22;6866;50.778;7.206;2022-08-21T00:37:47;16.40;67.50
13591;DHT22;6866;50.778;7.206;2022-08-21T00:40:16;16.50;67.40
13591;DHT22;6866;50.778;7.206;2022-08-21T00:42:42;16.60;67.40
13591;DHT22;6866;50.778;7.206;2022-08-21T00:45:08;16.30;68.10
13591;DHT22;6866;50.778;7.206;2022-08-21T00:47:34;16.20;68.90
13591;DHT22;6866;50.778;7.206;2022-08-21T00:50:00;16.20;68.90
13591;DHT22;6866;50.778;7.206;2022-08-21T00:52:28;16.20;68.70
13591;DHT22;6866;50.778;7.206;2022-08-21T00:54:56;16.30;68.90
13591;DHT22;6866;50.778;7.206;2022-08-21T00:57:29;16.30;68.50
13591;DHT22;6866;50.778;7.206;2022-08-21T00:59:58;16.20;68.70
13591;DHT22;6866;50.778;7.206;2022-08-21T01:05:00;15.90;70.50
13591;DHT22;6866;50.778;7.206;2022-08-21T01:07:26;16.10;69.70
13591;DHT22;6866;50.778;7.206;2022-08-21T01:09:52;16.10;69.30
13591;DHT22;6866;50.778;7.206;2022-08-21T01:12:18;15.90;70.20
13591;DHT22;6866;50.778;7.206;2022-08-21T01:14:44;15.80;71.00
13591;DHT22;6866;50.778;7.206;2022-08-21T01:17:11;15.80;72.50
13591;DHT22;6866;50.778;7.206;2022-08-21T01:19:38;15.90;70.80
13591;DHT22;6866;50.778;7.206;2022-08-21T01:22:03;15.90;70.90
13591;DHT22;6866;50.778;7.206;2022-08-21T01:24:29;15.70;71.50
13591;DHT22;6866;50.778;7.206;2022-08-21T01:26:57;15.80;71.40
13591;DHT22;6866;50.778;7.206;2022-08-21T01:29:30;15.90;70.80
13591;DHT22;6866;50.778;7.206;2022-08-21T01:32:00;16.00;70.40
13591;DHT22;6866;50.778;7.206;2022-08-21T01:34:28;15.90;71.00
13591;DHT22;6866;50.778;7.206;2022-08-21T01:36:54;15.80;71.60
13591;DHT22;6866;50.778;7.206;2022-08-21T01:39:19;15.90;71.40
13591;DHT22;6866;50.778;7.206;2022-08-21T01:41:45;16.00;71.10
13591;DHT22;6866;50.778;7.206;2022-08-21T01:44:11;16.00;71.00
13591;DHT22;6866;50.778;7.206;2022-08-21T01:46:36;15.90;71.30
13591;DHT22;6866;50.778;7.206;2022-08-21T01:49:04;15.80;71.70
13591;DHT22;6866;50.778;7.206;2022-08-21T01:51:29;15.80;71.90
13591;DHT22;6866;50.778;7.206;2022-08-21T01:53:55;15.80;72.10
13591;DHT22;6866;50.778;7.206;2022-08-21T01:56:20;15.60;72.80
13591;DHT22;6866;50.778;7.206;2022-08-21T01:58:47;15.70;72.90
13591;DHT22;6866;50.778;7.206;2022-08-21T02:01:13;15.60;72.60
13591;DHT22;6866;50.778;7.206;2022-08-21T02:03:39;15.50;73.30
13591;DHT22;6866;50.778;7.206;2022-08-21T02:06:06;15.50;73.30
13591;DHT22;6866;50.778;7.206;2022-08-21T02:08:32;15.50;73.20
13591;DHT22;6866;50.778;7.206;2022-08-21T02:10:58;15.50;73.50
13591;DHT22;6866;50.778;7.206;2022-08-21T02:13:23;15.50;73.20
13591;DHT22;6866;50.778;7.206;2022-08-21T02:15:49;15.50;73.30
13591;DHT22;6866;50.778;7.206;2022-08-21T02:18:15;15.60;73.20
13591;DHT22;6866;50.778;7.206;2022-08-21T02:20:44;15.60;72.90
13591;DHT22;6866;50.778;7.206;2022-08-21T02:23:11;15.60;72.70
13591;DHT22;6866;50.778;7.206;2022-08-21T02:25:37;15.50;73.10
13591;DHT22;6866;50.778;7.206;2022-08-21T02:28:07;15.50;73.10
13591;DHT22;6866;50.778;7.206;2022-08-21T02:30:36;15.50;73.20
13591;DHT22;6866;50.778;7.206;2022-08-21T02:33:08;15.50;73.50
13591;DHT22;6866;50.778;7.206;2022-08-21T02:35:35;15.50;73.30
13591;DHT22;6866;50.778;7.206;2022-08-21T02:38:05;15.40;73.70
13591;DHT22;6866;50.778;7.206;2022-08-21T02:40:34;15.50;73.60
13591;DHT22;6866;50.778;7.206;2022-08-21T02:43:02;15.40;74.30
13591;DHT22;6866;50.778;7.206;2022-08-21T02:45:28;15.50;74.00
13591;DHT22;6866;50.778;7.206;2022-08-21T02:47:57;15.20;74.90
13591;DHT22;6866;50.778;7.206;2022-08-21T02:50:30;15.00;76.10
13591;DHT22;6866;50.778;7.206;2022-08-21T02:52:56;15.00;76.00
13591;DHT22;6866;50.778;7.206;2022-08-21T02:55:23;15.10;75.50
13591;DHT22;6866;50.778;7.206;2022-08-21T02:57:50;15.10;75.30
13591;DHT22;6866;50.778;7.206;2022-08-21T03:00:16;15.10;75.50
13591;DHT22;6866;50.778;7.206;2022-08-21T03:02:42;15.10;75.60
13591;DHT22;6866;50.778;7.206;2022-08-21T03:05:09;15.00;75.80
13591;DHT22;6866;50.778;7.206;2022-08-21T03:07:37;15.10;75.50
13591;DHT22;6866;50.778;7.206;2022-08-21T03:10:04;15.20;75.50
13591;DHT22;6866;50.778;7.206;2022-08-21T03:12:30;15.10;75.60
13591;DHT22;6866;50.778;7.206;2022-08-21T03:14:55;15.00;75.60
13591;DHT22;6866;50.778;7.206;2022-08-21T03:17:21;14.80;76.40
13591;DHT22;6866;50.778;7.206;2022-08-21T03:19:46;14.70;77.50
13591;DHT22;6866;50.778;7.206;2022-08-21T03:22:12;14.80;76.70
13591;DHT22;6866;50.778;7.206;2022-08-21T03:24:37;14.80;77.00
13591;DHT22;6866;50.778;7.206;2022-08-21T03:27:03;14.60;77.40
13591;DHT22;6866;50.778;7.206;2022-08-21T03:29:28;14.60;78.00
13591;DHT22;6866;50.778;7.206;2022-08-21T03:31:54;14.50;78.70
13591;DHT22;6866;50.778;7.206;2022-08-21T03:34:20;14.60;78.40
13591;DHT22;6866;50.778;7.206;2022-08-21T03:36:47;14.50;78.70
13591;DHT22;6866;50.778;7.206;2022-08-21T03:39:13;14.50;78.80
13591;DHT22;6866;50.778;7.206;2022-08-21T03:41:39;14.50;78.60
13591;DHT22;6866;50.778;7.206;2022-08-21T03:44:04;14.50;78.50
13591;DHT22;6866;50.778;7.206;2022-08-21T03:46:30;14.50;78.50
13591;DHT22;6866;50.778;7.206;2022-08-21T03:48:55;14.60;78.50
13591;DHT22;6866;50.778;7.206;2022-08-21T03:51:21;14.50;78.70
13591;DHT22;6866;50.778;7.206;2022-08-21T03:53:47;14.50;78.80
13591;DHT22;6866;50.778;7.206;2022-08-21T03:56:12;14.60;78.40
13591;DHT22;6866;50.778;7.206;2022-08-21T03:58:38;14.40;79.40
13591;DHT22;6866;50.778;7.206;2022-08-21T04:01:04;14.20;80.40
13591;DHT22;6866;50.778;7.206;2022-08-21T04:03:32;14.30;80.10
13591;DHT22;6866;50.778;7.206;2022-08-21T04:05:59;14.50;79.50
13591;DHT22;6866;50.778;7.206;2022-08-21T04:08:25;14.40;79.80
13591;DHT22;6866;50.778;7.206;2022-08-21T04:10:52;14.40;79.40
13591;DHT22;6866;50.778;7.206;2022-08-21T04:13:19;14.60;79.20
13591;DHT22;6866;50.778;7.206;2022-08-21T04:15:45;14.60;79.20
13591;DHT22;6866;50.778;7.206;2022-08-21T04:18:11;14.50;79.60
13591;DHT22;6866;50.778;7.206;2022-08-21T04:20:37;14.40;80.40
13591;DHT22;6866;50.778;7.206;2022-08-21T04:23:03;14.30;80.80
13591;DHT22;6866;50.778;7.206;2022-08-21T04:25:29;14.30;80.80
13591;DHT22;6866;50.778;7.206;2022-08-21T04:27:54;14.30;80.90
13591;DHT22;6866;50.778;7.206;2022-08-21T04:30:21;14.30;80.40
13591;DHT22;6866;50.778;7.206;2022-08-21T04:32:50;14.40;80.50
13591;DHT22;6866;50.778;7.206;2022-08-21T04:35:20;14.40;80.70
13591;DHT22;6866;50.778;7.206;2022-08-21T04:37:46;14.40;80.40
13591;DHT22;6866;50.778;7.206;2022-08-21T04:40:15;14.40;80.20
13591;DHT22;6866;50.778;7.206;2022-08-21T04:42:43;14.50;80.00
13591;DHT22;6866;50.778;7.206;2022-08-21T04:45:20;14.40;79.80
13591;DHT22;6866;50.778;7.206;2022-08-21T04:47:51;14.40;79.70
13591;DHT22;6866;50.778;7.206;2022-08-21T04:50:18;14.40;80.50
13591;DHT22;6866;50.778;7.206;2022-08-21T04:52:45;14.40;79.60
13591;DHT22;6866;50.778;7.206;2022-08-21T04:55:11;14.50;79.20
13591;DHT22;6866;50.778;7.206;2022-08-21T04:57:37;14.40;79.50
13591;DHT22;6866;50.778;7.206;2022-08-21T05:00:03;14.30;80.30
13591;DHT22;6866;50.778;7.206;2022-08-21T05:02:31;14.50;79.50
13591;DHT22;6866;50.778;7.206;2022-08-21T05:04:58;14.50;79.30
13591;DHT22;6866;50.778;7.206;2022-08-21T05:07:26;14.40;79.30
13591;DHT22;6866;50.778;7.206;2022-08-21T05:09:53;14.50;78.90
13591;DHT22;6866;50.778;7.206;2022-08-21T05:12:19;14.30;79.90
13591;DHT22;6866;50.778;7.206;2022-08-21T05:14:44;14.00;81.00
13591;DHT22;6866;50.778;7.206;2022-08-21T05:17:10;14.00;82.20
13591;DHT22;6866;50.778;7.206;2022-08-21T05:19:36;14.10;81.50
13591;DHT22;6866;50.778;7.206;2022-08-21T05:22:02;14.30;80.00
13591;DHT22;6866;50.778;7.206;2022-08-21T05:24:28;14.40;79.90
13591;DHT22;6866;50.778;7.206;2022-08-21T05:26:54;14.50;79.60
13591;DHT22;6866;50.778;7.206;2022-08-21T05:29:20;14.60;79.00
13591;DHT22;6866;50.778;7.206;2022-08-21T05:31:46;14.40;79.90
13591;DHT22;6866;50.778;7.206;2022-08-21T05:34:14;14.60;80.00
13591;DHT22;6866;50.778;7.206;2022-08-21T05:36:40;14.70;79.20
13591;DHT22;6866;50.778;7.206;2022-08-21T05:39:06;14.80;79.30
13591;DHT22;6866;50.778;7.206;2022-08-21T05:41:31;14.80;79.20
13591;DHT22;6866;50.778;7.206;2022-08-21T05:43:57;14.80;79.50
13591;DHT22;6866;50.778;7.206;2022-08-21T05:46:22;15.00;78.70
13591;DHT22;6866;50.778;7.206;2022-08-21T05:48:48;15.30;77.80
13591;DHT22;6866;50.778;7.206;2022-08-21T05:51:14;15.30;77.30
13591;DHT22;6866;50.778;7.206;2022-08-21T05:53:41;15.30;77.70
13591;DHT22;6866;50.778;7.206;2022-08-21T05:56:08;15.50;76.90
13591;DHT22;6866;50.778;7.206;2022-08-21T05:58:34;15.70;76.20
13591;DHT22;6866;50.778;7.206;2022-08-21T06:01:01;15.80;75.40
13591;DHT22;6866;50.778;7.206;2022-08-21T06:03:34;16.00;74.50
13591;DHT22;6866;50.778;7.206;2022-08-21T06:06:01;16.10;74.30
13591;DHT22;6866;50.778;7.206;2022-08-21T06:08:27;16.20;73.80
13591;DHT22;6866;50.778;7.206;2022-08-21T06:10:54;16.40;73.00
13591;DHT22;6866;50.778;7.206;2022-08-21T06:13:21;17.10;71.40
13591;DHT22;6866;50.778;7.206;2022-08-21T06:15:47;20.60;61.80
13591;DHT22;6866;50.778;7.206;2022-08-21T06:18:13;23.10;53.20
13591;DHT22;6866;50.778;7.206;2022-08-21T06:20:39;25.10;46.40
13591;DHT22;6866;50.778;7.206;2022-08-21T06:23:05;26.00;44.50
13591;DHT22;6866;50.778;7.206;2022-08-21T06:25:30;26.40;42.70
13591;DHT22;6866;50.778;7.206;2022-08-21T06:28:08;26.70;41.50
13591;DHT22;6866;50.778;7.206;2022-08-21T06:30:35;27.40;41.20
13591;DHT22;6866;50.778;7.206;2022-08-21T06:33:01;27.80;39.50
13591;DHT22;6866;50.778;7.206;2022-08-21T06:35:28;28.10;38.40
13591;DHT22;6866;50.778;7.206;2022-08-21T06:37:54;27.70;39.90
13591;DHT22;6866;50.778;7.206;2022-08-21T06:40:20;28.60;37.40
13591;DHT22;6866;50.778;7.206;2022-08-21T06:42:45;28.70;37.00
13591;DHT22;6866;50.778;7.206;2022-08-21T06:45:11;28.50;36.80
13591;DHT22;6866;50.778;7.206;2022-08-21T06:47:36;28.90;36.10
13591;DHT22;6866;50.778;7.206;2022-08-21T06:50:02;29.20;36.10
13591;DHT22;6866;50.778;7.206;2022-08-21T06:52:29;29.20;36.10
13591;DHT22;6866;50.778;7.206;2022-08-21T06:54:54;29.40;35.20
13591;DHT22;6866;50.778;7.206;2022-08-21T06:57:20;29.40;35.30
13591;DHT22;6866;50.778;7.206;2022-08-21T06:59:45;29.60;35.90
13591;DHT22;6866;50.778;7.206;2022-08-21T07:02:11;30.10;34.60
13591;DHT22;6866;50.778;7.206;2022-08-21T07:04:36;30.40;33.60
13591;DHT22;6866;50.778;7.206;2022-08-21T07:07:02;30.00;34.30
13591;DHT22;6866;50.778;7.206;2022-08-21T07:09:27;29.00;34.90
13591;DHT22;6866;50.778;7.206;2022-08-21T07:11:55;30.20;34.20
13591;DHT22;6866;50.778;7.206;2022-08-21T07:14:21;29.90;33.70
13591;DHT22;6866;50.778;7.206;2022-08-21T07:16:47;29.70;34.70
13591;DHT22;6866;50.778;7.206;2022-08-21T07:19:13;29.60;33.70
13591;DHT22;6866;50.778;7.206;2022-08-21T07:21:39;30.10;34.40
13591;DHT22;6866;50.778;7.206;2022-08-21T07:24:04;29.60;34.40
13591;DHT22;6866;50.778;7.206;2022-08-21T07:26:30;30.50;33.50
13591;DHT22;6866;50.778;7.206;2022-08-21T07:28:55;30.50;32.60
13591;DHT22;6866;50.778;7.206;2022-08-21T07:31:22;30.70;32.30
13591;DHT22;6866;50.778;7.206;2022-08-21T07:33:49;31.30;32.40
13591;DHT22;6866;50.778;7.206;2022-08-21T07:36:14;31.00;32.30
13591;DHT22;6866;50.778;7.206;2022-08-21T07:38:40;31.80;31.50
13591;DHT22;6866;50.778;7.206;2022-08-21T07:41:17;32.30;30.70
13591;DHT22;6866;50.778;7.206;2022-08-21T07:43:44;31.20;31.30
13591;DHT22;6866;50.778;7.206;2022-08-21T07:46:09;31.20;32.40
13591;DHT22;6866;50.778;7.206;2022-08-21T07:48:36;31.10;31.10
13591;DHT22;6866;50.778;7.206;2022-08-21T07:51:08;31.40;31.20
13591;DHT22;6866;50.778;7.206;2022-08-21T07:53:36;32.00;30.00
13591;DHT22;6866;50.778;7.206;2022-08-21T07:56:02;31.80;30.90
13591;DHT22;6866;50.778;7.206;2022-08-21T07:58:28;32.00;30.20
13591;DHT22;6866;50.778;7.206;2022-08-21T08:00:54;32.10;30.70
13591;DHT22;6866;50.778;7.206;2022-08-21T08:03:19;32.60;29.60
13591;DHT22;6866;50.778;7.206;2022-08-21T08:05:45;32.10;29.50
13591;DHT22;6866;50.778;7.206;2022-08-21T08:08:10;32.50;29.40
13591;DHT22;6866;50.778;7.206;2022-08-21T08:10:37;32.60;29.10
13591;DHT22;6866;50.778;7.206;2022-08-21T08:13:03;32.90;28.90
13591;DHT22;6866;50.778;7.206;2022-08-21T08:15:29;32.70;28.90
13591;DHT22;6866;50.778;7.206;2022-08-21T08:17:55;32.70;28.90
13591;DHT22;6866;50.778;7.206;2022-08-21T08:20:21;32.00;29.10
13591;DHT22;6866;50.778;7.206;2022-08-21T08:22:48;30.90;30.40
13591;DHT22;6866;50.778;7.206;2022-08-21T08:25:14;31.80;29.90
13591;DHT22;6866;50.778;7.206;2022-08-21T08:27:40;32.20;29.10
13591;DHT22;6866;50.778;7.206;2022-08-21T08:30:08;31.30;29.60
13591;DHT22;6866;50.778;7.206;2022-08-21T08:32:34;31.90;29.70
13591;DHT22;6866;50.778;7.206;2022-08-21T08:35:00;32.40;29.00
13591;DHT22;6866;50.778;7.206;2022-08-21T08:37:26;32.90;28.30
13591;DHT22;6866;50.778;7.206;2022-08-21T08:39:51;31.40;28.60
13591;DHT22;6866;50.778;7.206;2022-08-21T08:42:26;30.90;29.90
13591;DHT22;6866;50.778;7.206;2022-08-21T08:44:59;31.40;29.90
13591;DHT22;6866;50.778;7.206;2022-08-21T08:47:25;31.40;29.60
13591;DHT22;6866;50.778;7.206;2022-08-21T08:50:07;31.80;28.90
13591;DHT22;6866;50.778;7.206;2022-08-21T08:52:43;32.00;28.70
13591;DHT22;6866;50.778;7.206;2022-08-21T08:55:17;31.30;29.00
13591;DHT22;6866;50.778;7.206;2022-08-21T08:57:46;31.20;29.20
13591;DHT22;6866;50.778;7.206;2022-08-21T09:00:15;30.50;29.70
13591;DHT22;6866;50.778;7.206;2022-08-21T09:02:43;31.40;29.70
13591;DHT22;6866;50.778;7.206;2022-08-21T09:08:24;32.10;28.90
13591;DHT22;6866;50.778;7.206;2022-08-21T09:13:27;32.90;27.30
13591;DHT22;6866;50.778;7.206;2022-08-21T09:16:08;32.00;28.00
13591;DHT22;6866;50.778;7.206;2022-08-21T09:21:49;32.00;28.50
13591;DHT22;6866;50.778;7.206;2022-08-21T09:24:35;31.60;29.10
13591;DHT22;6866;50.778;7.206;2022-08-21T09:29:34;30.80;29.00
13591;DHT22;6866;50.778;7.206;2022-08-21T09:32:00;31.20;29.40
13591;DHT22;6866;50.778;7.206;2022-08-21T09:34:28;30.70;28.40
13591;DHT22;6866;50.778;7.206;2022-08-21T09:36:54;30.60;29.30
13591;DHT22;6866;50.778;7.206;2022-08-21T09:39:30;31.00;29.30
13591;DHT22;6866;50.778;7.206;2022-08-21T09:42:01;30.70;28.90
13591;DHT22;6866;50.778;7.206;2022-08-21T09:44:30;30.50;29.40
13591;DHT22;6866;50.778;7.206;2022-08-21T09:46:56;29.90;30.60
13591;DHT22;6866;50.778;7.206;2022-08-21T09:49:29;30.30;29.80
13591;DHT22;6866;50.778;7.206;2022-08-21T09:51:54;30.20;29.00
13591;DHT22;6866;50.778;7.206;2022-08-21T09:54:20;29.90;30.20
13591;DHT22;6866;50.778;7.206;2022-08-21T09:56:54;30.30;29.90
13591;DHT22;6866;50.778;7.206;2022-08-21T09:59:39;30.60;29.50
13591;DHT22;6866;50.778;7.206;2022-08-21T10:02:23;29.90;29.70
13591;DHT22;6866;50.778;7.206;2022-08-21T10:04:49;30.20;29.90
13591;DHT22;6866;50.778;7.206;2022-08-21T10:07:15;30.50;30.00
13591;DHT22;6866;50.778;7.206;2022-08-21T10:09:44;30.60;29.50
13591;DHT22;6866;50.778;7.206;2022-08-21T10:17:17;30.30;29.80
13591;DHT22;6866;50.778;7.206;2022-08-21T10:20:00;29.70;29.60
13591;DHT22;6866;50.778;7.206;2022-08-21T10:22:43;29.70;30.10
13591;DHT22;6866;50.778;7.206;2022-08-21T10:28:07;30.20;29.80
13591;DHT22;6866;50.778;7.206;2022-08-21T10:33:33;30.30;29.40
13591;DHT22;6866;50.778;7.206;2022-08-21T10:36:11;29.60;30.00
13591;DHT22;6866;50.778;7.206;2022-08-21T10:41:26;29.70;30.10
13591;DHT22;6866;50.778;7.206;2022-08-21T10:52:02;29.80;29.60
13591;DHT22;6866;50.778;7.206;2022-08-21T10:57:04;29.50;30.30
13591;DHT22;6866;50.778;7.206;2022-08-21T10:59:34;29.80;30.00
13591;DHT22;6866;50.778;7.206;2022-08-21T11:04:45;30.20;29.30
13591;DHT22;6866;50.778;7.206;2022-08-21T11:07:18;30.10;28.70
13591;DHT22;6866;50.778;7.206;2022-08-21T11:09:45;29.70;28.90
13591;DHT22;6866;50.778;7.206;2022-08-21T11:12:17;30.00;29.00
13591;DHT22;6866;50.778;7.206;2022-08-21T11:17:12;29.40;28.60
13591;DHT22;6866;50.778;7.206;2022-08-21T11:19:59;29.40;28.80
13591;DHT22;6866;50.778;7.206;2022-08-21T11:22:28;28.90;29.70
13591;DHT22;6866;50.778;7.206;2022-08-21T11:30:18;28.30;29.90
13591;DHT22;6866;50.778;7.206;2022-08-21T11:32:57;28.80;30.30
13591;DHT22;6866;50.778;7.206;2022-08-21T11:35:58;28.80;30.00
13591;DHT22;6866;50.778;7.206;2022-08-21T11:38:43;28.70;29.40
13591;DHT22;6866;50.778;7.206;2022-08-21T11:49:49;29.80;28.60
13591;DHT22;6866;50.778;7.206;2022-08-21T11:52:23;29.40;29.20
13591;DHT22;6866;50.778;7.206;2022-08-21T11:54:56;29.30;29.10
13591;DHT22;6866;50.778;7.206;2022-08-21T12:00:08;29.80;28.90
13591;DHT22;6866;50.778;7.206;2022-08-21T12:02:39;30.10;28.20
13591;DHT22;6866;50.778;7.206;2022-08-21T12:05:11;29.80;27.80
13591;DHT22;6866;50.778;7.206;2022-08-21T12:07:44;29.80;28.40
13591;DHT22;6866;50.778;7.206;2022-08-21T12:10:18;30.10;28.50
13591;DHT22;6866;50.778;7.206;2022-08-21T12:12:46;30.30;28.40
13591;DHT22;6866;50.778;7.206;2022-08-21T12:18:23;30.00;27.70
13591;DHT22;6866;50.778;7.206;2022-08-21T12:21:19;29.70;27.60
13591;DHT22;6866;50.778;7.206;2022-08-21T12:26:48;29.80;28.50
13591;DHT22;6866;50.778;7.206;2022-08-21T12:32:02;30.00;28.30
13591;DHT22;6866;50.778;7.206;2022-08-21T12:34:42;29.90;28.00
13591;DHT22;6866;50.778;7.206;2022-08-21T12:40:00;29.70;29.40
13591;DHT22;6866;50.778;7.206;2022-08-21T12:42:45;30.10;28.60
13591;DHT22;6866;50.778;7.206;2022-08-21T12:45:45;29.80;28.20
13591;DHT22;6866;50.778;7.206;2022-08-21T12:48:20;29.90;28.50
13591;DHT22;6866;50.778;7.206;2022-08-21T12:51:22;30.00;28.20
13591;DHT22;6866;50.778;7.206;2022-08-21T12:53:48;30.10;28.30
13591;DHT22;6866;50.778;7.206;2022-08-21T12:56:20;30.40;28.10
13591;DHT22;6866;50.778;7.206;2022-08-21T12:58:47;30.40;27.00
13591;DHT22;6866;50.778;7.206;2022-08-21T13:03:42;30.20;27.30
13591;DHT22;6866;50.778;7.206;2022-08-21T13:06:14;30.30;28.20
13591;DHT22;6866;50.778;7.206;2022-08-21T13:08:41;30.10;27.00
13591;DHT22;6866;50.778;7.206;2022-08-21T13:11:08;30.10;27.20
13591;DHT22;6866;50.778;7.206;2022-08-21T13:13:35;30.20;27.30
13591;DHT22;6866;50.778;7.206;2022-08-21T13:16:06;30.30;27.50
13591;DHT22;6866;50.778;7.206;2022-08-21T13:18:36;30.40;27.70
13591;DHT22;6866;50.778;7.206;2022-08-21T13:23:30;30.10;27.00
13591;DHT22;6866;50.778;7.206;2022-08-21T13:25:56;30.00;27.80
13591;DHT22;6866;50.778;7.206;2022-08-21T13:28:23;30.30;27.00
13591;DHT22;6866;50.778;7.206;2022-08-21T13:30:50;30.40;27.00
13591;DHT22;6866;50.778;7.206;2022-08-21T13:33:17;30.70;27.00
13591;DHT22;6866;50.778;7.206;2022-08-21T13:38:17;29.90;27.30
13591;DHT22;6866;50.778;7.206;2022-08-21T13:40:51;30.10;27.50
13591;DHT22;6866;50.778;7.206;2022-08-21T13:43:21;29.80;27.60
13591;DHT22;6866;50.778;7.206;2022-08-21T13:45:51;29.90;27.70
13591;DHT22;6866;50.778;7.206;2022-08-21T13:48:18;29.80;27.70
13591;DHT22;6866;50.778;7.206;2022-08-21T13:50:44;29.70;27.80
13591;DHT22;6866;50.778;7.206;2022-08-21T13:56:05;30.10;28.10
13591;DHT22;6866;50.778;7.206;2022-08-21T13:58:33;30.30;27.50
13591;DHT22;6866;50.778;7.206;2022-08-21T14:01:06;30.00;27.40
13591;DHT22;6866;50.778;7.206;2022-08-21T14:03:42;30.10;28.00
13591;DHT22;6866;50.778;7.206;2022-08-21T14:06:13;29.70;27.80
13591;DHT22;6866;50.778;7.206;2022-08-21T14:08:40;29.30;28.30
13591;DHT22;6866;50.778;7.206;2022-08-21T14:11:11;28.90;28.50
13591;DHT22;6866;50.778;7.206;2022-08-21T14:13:38;28.70;29.00
13591;DHT22;6866;50.778;7.206;2022-08-21T14:16:25;29.00;28.80
13591;DHT22;6866;50.778;7.206;2022-08-21T14:21:24;28.30;29.40
13591;DHT22;6866;50.778;7.206;2022-08-21T14:24:01;28.50;30.20
13591;DHT22;6866;50.778;7.206;2022-08-21T14:26:27;28.70;29.40
13591;DHT22;6866;50.778;7.206;2022-08-21T14:28:53;29.00;28.90
13591;DHT22;6866;50.778;7.206;2022-08-21T14:31:27;29.10;29.10
13591;DHT22;6866;50.778;7.206;2022-08-21T14:33:54;29.10;29.20
13591;DHT22;6866;50.778;7.206;2022-08-21T14:36:20;29.20;29.20
13591;DHT22;6866;50.778;7.206;2022-08-21T14:38:45;29.20;28.90
13591;DHT22;6866;50.778;7.206;2022-08-21T14:41:16;29.00;29.10
13591;DHT22;6866;50.778;7.206;2022-08-21T14:43:44;28.60;29.50
13591;DHT22;6866;50.778;7.206;2022-08-21T14:46:10;28.50;29.80
13591;DHT22;6866;50.778;7.206;2022-08-21T14:48:36;28.20;30.00
13591;DHT22;6866;50.778;7.206;2022-08-21T14:51:01;28.20;30.10
13591;DHT22;6866;50.778;7.206;2022-08-21T14:53:27;28.00;30.50
13591;DHT22;6866;50.778;7.206;2022-08-21T14:55:53;28.10;30.70
13591;DHT22;6866;50.778;7.206;2022-08-21T14:58:34;28.10;30.90
13591;DHT22;6866;50.778;7.206;2022-08-21T15:01:00;28.30;30.90
13591;DHT22;6866;50.778;7.206;2022-08-21T15:03:29;28.20;30.90
13591;DHT22;6866;50.778;7.206;2022-08-21T15:05:56;28.20;31.30
13591;DHT22;6866;50.778;7.206;2022-08-21T15:08:22;28.20;31.10
13591;DHT22;6866;50.778;7.206;2022-08-21T15:10:48;28.30;31.10
13591;DHT22;6866;50.778;7.206;2022-08-21T15:13:13;28.30;31.00
13591;DHT22;6866;50.778;7.206;2022-08-21T15:15:42;28.40;31.50
13591;DHT22;6866;50.778;7.206;2022-08-21T15:18:09;28.40;30.70
13591;DHT22;6866;50.778;7.206;2022-08-21T15:20:35;28.70;31.00
13591;DHT22;6866;50.778;7.206;2022-08-21T15:23:02;28.80;30.50
13591;DHT22;6866;50.778;7.206;2022-08-21T15:25:28;28.60;30.30
13591;DHT22;6866;50.778;7.206;2022-08-21T15:27:53;28.50;30.40
13591;DHT22;6866;50.778;7.206;2022-08-21T15:30:19;28.50;30.60
13591;DHT22;6866;50.778;7.206;2022-08-21T15:32:44;28.40;30.60
13591;DHT22;6866;50.778;7.206;2022-08-21T15:35:10;28.30;31.50
13591;DHT22;6866;50.778;7.206;2022-08-21T15:37:36;28.30;31.70
13591;DHT22;6866;50.778;7.206;2022-08-21T15:40:03;28.30;31.20
13591;DHT22;6866;50.778;7.206;2022-08-21T15:42:30;28.10;31.10
13591;DHT22;6866;50.778;7.206;2022-08-21T15:44:56;28.10;31.70
13591;DHT22;6866;50.778;7.206;2022-08-21T15:47:27;28.00;32.10
13591;DHT22;6866;50.778;7.206;2022-08-21T15:49:53;27.90;32.10
13591;DHT22;6866;50.778;7.206;2022-08-21T15:52:20;27.70;32.60
13591;DHT22;6866;50.778;7.206;2022-08-21T15:54:47;27.50;32.80
13591;DHT22;6866;50.778;7.206;2022-08-21T15:57:14;27.50;33.20
13591;DHT22;6866;50.778;7.206;2022-08-21T15:59:45;27.60;33.30
13591;DHT22;6866;50.778;7.206;2022-08-21T16:02:19;27.60;33.20
13591;DHT22;6866;50.778;7.206;2022-08-21T16:04:46;27.50;33.30
13591;DHT22;6866;50.778;7.206;2022-08-21T16:07:12;27.50;33.40
13591;DHT22;6866;50.778;7.206;2022-08-21T16:09:38;27.50;33.00
13591;DHT22;6866;50.778;7.206;2022-08-21T16:12:05;27.50;33.40
13591;DHT22;6866;50.778;7.206;2022-08-21T16:14:31;27.40;33.90
13591;DHT22;6866;50.778;7.206;2022-08-21T16:16:59;27.30;33.20
13591;DHT22;6866;50.778;7.206;2022-08-21T16:19:27;27.30;33.10
13591;DHT22;6866;50.778;7.206;2022-08-21T16:21:53;27.20;33.10
13591;DHT22;6866;50.778;7.206;2022-08-21T16:24:18;27.10;33.30
13591;DHT22;6866;50.778;7.206;2022-08-21T16:26:44;27.20;33.50
13591;DHT22;6866;50.778;7.206;2022-08-21T16:29:10;27.20;33.30
13591;DHT22;6866;50.778;7.206;2022-08-21T16:31:35;27.30;33.00
13591;DHT22;6866;50.778;7.206;2022-08-21T16:34:01;27.30;32.90
13591;DHT22;6866;50.778;7.206;2022-08-21T16:36:27;27.40;33.00
13591;DHT22;6866;50.778;7.206;2022-08-21T16:38:54;27.30;33.00
13591;DHT22;6866;50.778;7.206;2022-08-21T16:41:21;27.30;32.80
13591;DHT22;6866;50.778;7.206;2022-08-21T16:43:48;27.30;32.50
13591;DHT22;6866;50.778;7.206;2022-08-21T16:46:15;27.30;32.60
13591;DHT22;6866;50.778;7.206;2022-08-21T16:48:42;27.30;32.80
13591;DHT22;6866;50.778;7.206;2022-08-21T16:51:13;27.20;32.70
13591;DHT22;6866;50.778;7.206;2022-08-21T16:53:39;27.10;32.60
13591;DHT22;6866;50.778;7.206;2022-08-21T16:56:05;26.90;33.40
13591;DHT22;6866;50.778;7.206;2022-08-21T16:58:36;26.90;33.10
13591;DHT22;6866;50.778;7.206;2022-08-21T17:01:07;26.80;33.50
13591;DHT22;6866;50.778;7.206;2022-08-21T17:03:37;26.90;33.30
13591;DHT22;6866;50.778;7.206;2022-08-21T17:06:04;26.80;33.40
13591;DHT22;6866;50.778;7.206;2022-08-21T17:08:30;26.80;33.80
13591;DHT22;6866;50.778;7.206;2022-08-21T17:10:56;26.70;33.60
13591;DHT22;6866;50.778;7.206;2022-08-21T17:13:23;26.70;33.80
13591;DHT22;6866;50.778;7.206;2022-08-21T17:15:49;26.80;33.70